sensor_id;sensor_type;location;lat;lon;timestamp;temperature;humidity
23073;DHT22;34865;51.046;3.732;2022-08-01T00:01:51;21.20;99.90
23073;DHT22;34865;51.046;3.732;2022-08-01T00:04:17;21.10;99.90
23073;DHT22;34865;51.046;3.732;2022-08-01T00:06:43;21.10;99.90
23073;DHT22;34865;51.046;3.732;2022-08-01T00:09:09;21.00;99.90
23073;DHT22;34865;51.046;3.732;2022-08-01T00:11:34;21.00;99.90
23073;DHT22;34865;51.046;3.732;2022-08-01T00:14:00;20.80;99.90
23073;DHT22;34865;51.046;3.732;2022-08-01T00:16:26;20.90;99.90
23073;DHT22;34865;51.046;3.732;2022-08-01T00:18:52;20.80;99.90
23073;DHT22;34865;51.046;3.732;2022-08-01T00:21:17;21.10;99.90
23073;DHT22;34865;51.046;3.732;2022-08-01T00:23:43;21.00;99.90
23073;DHT22;34865;51.046;3.732;2022-08-01T00:26:13;20.90;99.90
23073;DHT22;34865;51.046;3.732;2022-08-01T00:28:39;20.80;99.90
23073;DHT22;34865;51.046;3.732;2022-08-01T00:31:05;20.70;99.90
23073;DHT22;34865;51.046;3.732;2022-08-01T00:33:30;20.70;99.90
23073;DHT22;34865;51.046;3.732;2022-08-01T00:35:56;20.60;99.90
23073;DHT22;34865;51.046;3.732;2022-08-01T00:38:22;20.60;99.90
23073;DHT22;34865;51.046;3.732;2022-08-01T00:40:48;20.60;99.90
23073;DHT22;34865;51.046;3.732;2022-08-01T00:43:14;20.70;99.90
23073;DHT22;34865;51.046;3.732;2022-08-01T00:45:40;20.80;99.90
23073;DHT22;34865;51.046;3.732;2022-08-01T00:48:05;21.00;99.90
23073;DHT22;34865;51.046;3.732;2022-08-01T00:50:31;21.10;99.90
23073;DHT22;34865;51.046;3.732;2022-08-01T00:52:58;21.10;99.90
23073;DHT22;34865;51.046;3.732;2022-08-01T00:55:25;20.90;99.90
23073;DHT22;34865;51.046;3.732;2022-08-01T00:57:51;20.80;99.90
23073;DHT22;34865;51.046;3.732;2022-08-01T01:00:17;20.70;99.90
23073;DHT22;34865;51.046;3.732;2022-08-01T01:02:43;20.60;99.90
23073;DHT22;34865;51.046;3.732;2022-08-01T01:05:09;20.60;99.90
23073;DHT22;34865;51.046;3.732;2022-08-01T01:07:52;20.50;99.90
23073;DHT22;34865;51.046;3.732;2022-08-01T01:10:25;20.50;99.90
23073;DHT22;34865;51.046;3.732;2022-08-01T01:18:23;20.70;99.90
23073;DHT22;34865;51.046;3.732;2022-08-01T01:26:51;21.00;99.90
23073;DHT22;34865;51.046;3.732;2022-08-01T01:29:38;20.90;99.90
23073;DHT22;34865;51.046;3.732;2022-08-01T01:32:10;21.10;99.90
23073;DHT22;34865;51.046;3.732;2022-08-01T01:34:39;20.90;99.90
23073;DHT22;34865;51.046;3.732;2022-08-01T01:37:11;20.80;99.90
23073;DHT22;34865;51.046;3.732;2022-08-01T01:39:38;20.70;99.90
23073;DHT22;34865;51.046;3.732;2022-08-01T01:42:06;20.60;99.90
23073;DHT22;34865;51.046;3.732;2022-08-01T01:44:34;20.70;99.90
23073;DHT22;34865;51.046;3.732;2022-08-01T01:47:01;20.60;99.90
23073;DHT22;34865;51.046;3.732;2022-08-01T01:49:28;20.50;99.90
23073;DHT22;34865;51.046;3.732;2022-08-01T01:51:56;20.20;99.90
23073;DHT22;34865;51.046;3.732;2022-08-01T01:54:33;20.10;99.90
23073;DHT22;34865;51.046;3.732;2022-08-01T01:57:02;20.10;99.90
23073;DHT22;34865;51.046;3.732;2022-08-01T01:59:31;20.20;99.90
23073;DHT22;34865;51.046;3.732;2022-08-01T02:02:01;20.20;99.90
23073;DHT22;34865;51.046;3.732;2022-08-01T02:04:28;20.20;99.90
23073;DHT22;34865;51.046;3.732;2022-08-01T02:06:55;20.10;99.90
23073;DHT22;34865;51.046;3.732;2022-08-01T02:09:23;20.10;99.90
23073;DHT22;34865;51.046;3.732;2022-08-01T02:11:51;19.90;99.90
23073;DHT22;34865;51.046;3.732;2022-08-01T02:14:18;20.00;99.90
23073;DHT22;34865;51.046;3.732;2022-08-01T02:16:47;19.90;99.90
23073;DHT22;34865;51.046;3.732;2022-08-01T02:19:14;19.90;99.90
23073;DHT22;34865;51.046;3.732;2022-08-01T02:22:01;20.00;99.90
23073;DHT22;34865;51.046;3.732;2022-08-01T02:24:52;20.10;99.90
23073;DHT22;34865;51.046;3.732;2022-08-01T02:27:25;20.20;99.90
23073;DHT22;34865;51.046;3.732;2022-08-01T02:30:04;20.30;99.90
23073;DHT22;34865;51.046;3.732;2022-08-01T02:32:40;20.40;99.90
23073;DHT22;34865;51.046;3.732;2022-08-01T02:35:11;20.40;99.90
23073;DHT22;34865;51.046;3.732;2022-08-01T02:37:39;20.40;99.90
23073;DHT22;34865;51.046;3.732;2022-08-01T02:40:08;20.30;99.90
23073;DHT22;34865;51.046;3.732;2022-08-01T02:42:36;20.30;99.90
23073;DHT22;34865;51.046;3.732;2022-08-01T02:45:04;20.30;99.90
23073;DHT22;34865;51.046;3.732;2022-08-01T02:47:32;20.30;99.90
23073;DHT22;34865;51.046;3.732;2022-08-01T02:49:59;20.30;99.90
23073;DHT22;34865;51.046;3.732;2022-08-01T02:52:27;20.30;99.90
23073;DHT22;34865;51.046;3.732;2022-08-01T02:54:57;20.20;99.90
23073;DHT22;34865;51.046;3.732;2022-08-01T02:57:23;20.20;99.90
23073;DHT22;34865;51.046;3.732;2022-08-01T02:59:50;20.20;99.90
23073;DHT22;34865;51.046;3.732;2022-08-01T03:02:18;20.20;99.90
23073;DHT22;34865;51.046;3.732;2022-08-01T03:04:45;20.30;99.90
23073;DHT22;34865;51.046;3.732;2022-08-01T03:07:12;20.40;99.90
23073;DHT22;34865;51.046;3.732;2022-08-01T03:09:44;20.40;99.90
23073;DHT22;34865;51.046;3.732;2022-08-01T03:12:16;20.30;99.90
23073;DHT22;34865;51.046;3.732;2022-08-01T03:14:44;20.40;99.90
23073;DHT22;34865;51.046;3.732;2022-08-01T03:17:10;20.40;99.90
23073;DHT22;34865;51.046;3.732;2022-08-01T03:19:38;20.50;99.90
23073;DHT22;34865;51.046;3.732;2022-08-01T03:22:08;20.50;99.90
23073;DHT22;34865;51.046;3.732;2022-08-01T03:24:35;20.60;99.90
23073;DHT22;34865;51.046;3.732;2022-08-01T03:27:02;20.50;99.90
23073;DHT22;34865;51.046;3.732;2022-08-01T03:29:30;20.40;99.90
23073;DHT22;34865;51.046;3.732;2022-08-01T03:31:57;20.40;99.90
23073;DHT22;34865;51.046;3.732;2022-08-01T03:34:24;20.40;99.90
23073;DHT22;34865;51.046;3.732;2022-08-01T03:37:09;20.30;99.90
23073;DHT22;34865;51.046;3.732;2022-08-01T03:40:09;20.40;99.90
23073;DHT22;34865;51.046;3.732;2022-08-01T03:42:41;20.20;99.90
23073;DHT22;34865;51.046;3.732;2022-08-01T03:45:08;20.10;99.90
23073;DHT22;34865;51.046;3.732;2022-08-01T03:47:35;20.30;99.90
23073;DHT22;34865;51.046;3.732;2022-08-01T03:50:04;20.30;99.90
23073;DHT22;34865;51.046;3.732;2022-08-01T03:52:30;20.30;99.90
23073;DHT22;34865;51.046;3.732;2022-08-01T03:54:59;20.20;99.90
23073;DHT22;34865;51.046;3.732;2022-08-01T03:57:28;20.00;99.90
23073;DHT22;34865;51.046;3.732;2022-08-01T03:59:56;20.10;99.90
23073;DHT22;34865;51.046;3.732;2022-08-01T04:02:24;20.20;99.90
23073;DHT22;34865;51.046;3.732;2022-08-01T04:04:50;20.20;99.90
23073;DHT22;34865;51.046;3.732;2022-08-01T04:07:24;20.30;99.90
23073;DHT22;34865;51.046;3.732;2022-08-01T04:09:51;20.30;99.90
23073;DHT22;34865;51.046;3.732;2022-08-01T04:12:17;20.40;99.90
23073;DHT22;34865;51.046;3.732;2022-08-01T04:14:42;20.30;99.90
23073;DHT22;34865;51.046;3.732;2022-08-01T04:17:08;20.40;99.90
23073;DHT22;34865;51.046;3.732;2022-08-01T04:19:34;20.40;99.90
23073;DHT22;34865;51.046;3.732;2022-08-01T04:22:00;20.20;99.90
23073;DHT22;34865;51.046;3.732;2022-08-01T04:24:27;20.30;99.90
23073;DHT22;34865;51.046;3.732;2022-08-01T04:26:57;20.40;99.90
23073;DHT22;34865;51.046;3.732;2022-08-01T04:29:24;20.40;99.90
23073;DHT22;34865;51.046;3.732;2022-08-01T04:31:53;20.40;99.90
23073;DHT22;34865;51.046;3.732;2022-08-01T04:34:22;20.40;99.90
23073;DHT22;34865;51.046;3.732;2022-08-01T04:36:50;20.40;99.90
23073;DHT22;34865;51.046;3.732;2022-08-01T04:39:18;20.50;99.90
23073;DHT22;34865;51.046;3.732;2022-08-01T04:41:45;20.50;99.90
23073;DHT22;34865;51.046;3.732;2022-08-01T04:44:13;20.60;99.90
23073;DHT22;34865;51.046;3.732;2022-08-01T04:46:40;20.70;99.90
23073;DHT22;34865;51.046;3.732;2022-08-01T04:49:07;20.70;99.90
23073;DHT22;34865;51.046;3.732;2022-08-01T04:51:34;20.60;99.90
23073;DHT22;34865;51.046;3.732;2022-08-01T04:54:00;20.60;99.90
23073;DHT22;34865;51.046;3.732;2022-08-01T04:56:26;20.50;99.90
23073;DHT22;34865;51.046;3.732;2022-08-01T04:58:52;20.60;99.90
23073;DHT22;34865;51.046;3.732;2022-08-01T05:01:38;20.70;99.90
23073;DHT22;34865;51.046;3.732;2022-08-01T05:04:04;20.50;99.90
23073;DHT22;34865;51.046;3.732;2022-08-01T05:06:29;20.40;99.90
23073;DHT22;34865;51.046;3.732;2022-08-01T05:08:55;20.40;99.90
23073;DHT22;34865;51.046;3.732;2022-08-01T05:11:21;20.40;99.90
23073;DHT22;34865;51.046;3.732;2022-08-01T05:13:47;20.40;99.90
23073;DHT22;34865;51.046;3.732;2022-08-01T05:16:13;20.40;99.90
23073;DHT22;34865;51.046;3.732;2022-08-01T05:18:39;20.50;99.90
23073;DHT22;34865;51.046;3.732;2022-08-01T05:21:04;20.60;99.90
23073;DHT22;34865;51.046;3.732;2022-08-01T05:23:30;20.50;99.90
23073;DHT22;34865;51.046;3.732;2022-08-01T05:25:56;20.60;99.90
23073;DHT22;34865;51.046;3.732;2022-08-01T05:28:21;20.60;99.90
23073;DHT22;34865;51.046;3.732;2022-08-01T05:30:47;20.60;99.90
23073;DHT22;34865;51.046;3.732;2022-08-01T05:33:12;20.50;99.90
23073;DHT22;34865;51.046;3.732;2022-08-01T05:35:38;20.70;99.90
23073;DHT22;34865;51.046;3.732;2022-08-01T05:38:04;21.00;99.90
23073;DHT22;34865;51.046;3.732;2022-08-01T05:40:29;21.00;99.90
23073;DHT22;34865;51.046;3.732;2022-08-01T05:42:55;21.10;99.90
23073;DHT22;34865;51.046;3.732;2022-08-01T05:45:20;21.00;99.90
23073;DHT22;34865;51.046;3.732;2022-08-01T05:47:46;20.90;99.90
23073;DHT22;34865;51.046;3.732;2022-08-01T05:50:11;20.90;99.90
23073;DHT22;34865;51.046;3.732;2022-08-01T05:52:37;21.20;99.90
23073;DHT22;34865;51.046;3.732;2022-08-01T05:55:03;21.20;99.90
23073;DHT22;34865;51.046;3.732;2022-08-01T05:57:30;21.10;99.90
23073;DHT22;34865;51.046;3.732;2022-08-01T05:59:55;20.80;99.90
23073;DHT22;34865;51.046;3.732;2022-08-01T06:02:21;20.80;99.90
23073;DHT22;34865;51.046;3.732;2022-08-01T06:04:47;20.90;99.90
23073;DHT22;34865;51.046;3.732;2022-08-01T06:07:12;21.00;99.90
23073;DHT22;34865;51.046;3.732;2022-08-01T06:09:38;21.00;99.90
23073;DHT22;34865;51.046;3.732;2022-08-01T06:12:04;21.20;99.90
23073;DHT22;34865;51.046;3.732;2022-08-01T06:14:29;21.30;99.90
23073;DHT22;34865;51.046;3.732;2022-08-01T06:16:55;21.30;99.90
23073;DHT22;34865;51.046;3.732;2022-08-01T06:19:21;21.40;99.90
23073;DHT22;34865;51.046;3.732;2022-08-01T06:21:46;21.60;99.90
23073;DHT22;34865;51.046;3.732;2022-08-01T06:24:12;21.70;99.90
23073;DHT22;34865;51.046;3.732;2022-08-01T06:26:38;21.60;99.90
23073;DHT22;34865;51.046;3.732;2022-08-01T06:29:03;21.60;99.90
23073;DHT22;34865;51.046;3.732;2022-08-01T06:31:29;21.50;99.90
23073;DHT22;34865;51.046;3.732;2022-08-01T06:33:56;21.50;99.90
23073;DHT22;34865;51.046;3.732;2022-08-01T06:36:22;21.50;99.90
23073;DHT22;34865;51.046;3.732;2022-08-01T06:38:48;21.40;99.90
23073;DHT22;34865;51.046;3.732;2022-08-01T06:41:13;21.60;99.90
23073;DHT22;34865;51.046;3.732;2022-08-01T06:43:39;21.60;99.90
23073;DHT22;34865;51.046;3.732;2022-08-01T06:46:05;21.80;99.90
23073;DHT22;34865;51.046;3.732;2022-08-01T06:48:30;21.90;99.90
23073;DHT22;34865;51.046;3.732;2022-08-01T06:50:56;21.80;99.90
23073;DHT22;34865;51.046;3.732;2022-08-01T06:53:37;21.90;99.90
23073;DHT22;34865;51.046;3.732;2022-08-01T06:56:04;21.90;99.90
23073;DHT22;34865;51.046;3.732;2022-08-01T06:58:30;22.00;99.90
23073;DHT22;34865;51.046;3.732;2022-08-01T07:00:55;21.90;99.90
23073;DHT22;34865;51.046;3.732;2022-08-01T07:03:21;22.00;99.90
23073;DHT22;34865;51.046;3.732;2022-08-01T07:05:47;22.00;99.90
23073;DHT22;34865;51.046;3.732;2022-08-01T07:08:12;22.10;99.90
23073;DHT22;34865;51.046;3.732;2022-08-01T07:10:38;22.20;99.90
23073;DHT22;34865;51.046;3.732;2022-08-01T07:13:03;22.30;99.90
23073;DHT22;34865;51.046;3.732;2022-08-01T07:15:29;22.50;99.90
23073;DHT22;34865;51.046;3.732;2022-08-01T07:17:55;22.70;99.90
23073;DHT22;34865;51.046;3.732;2022-08-01T07:20:22;23.00;99.90
23073;DHT22;34865;51.046;3.732;2022-08-01T07:22:47;23.30;99.90
23073;DHT22;34865;51.046;3.732;2022-08-01T07:25:13;23.40;99.90
23073;DHT22;34865;51.046;3.732;2022-08-01T07:27:39;23.30;99.90
23073;DHT22;34865;51.046;3.732;2022-08-01T07:30:05;23.60;99.90
23073;DHT22;34865;51.046;3.732;2022-08-01T07:32:31;23.60;99.90
23073;DHT22;34865;51.046;3.732;2022-08-01T07:34:57;23.70;99.90
23073;DHT22;34865;51.046;3.732;2022-08-01T07:37:23;23.40;99.90
23073;DHT22;34865;51.046;3.732;2022-08-01T07:39:49;23.20;99.90
23073;DHT22;34865;51.046;3.732;2022-08-01T07:42:15;23.10;99.90
23073;DHT22;34865;51.046;3.732;2022-08-01T07:44:40;23.10;99.90
23073;DHT22;34865;51.046;3.732;2022-08-01T07:47:06;23.40;99.90
23073;DHT22;34865;51.046;3.732;2022-08-01T07:49:32;23.90;99.90
23073;DHT22;34865;51.046;3.732;2022-08-01T07:51:58;24.10;99.90
23073;DHT22;34865;51.046;3.732;2022-08-01T07:54:23;24.40;99.90
23073;DHT22;34865;51.046;3.732;2022-08-01T07:56:50;24.20;99.90
23073;DHT22;34865;51.046;3.732;2022-08-01T07:59:16;24.60;99.90
23073;DHT22;34865;51.046;3.732;2022-08-01T08:01:48;25.40;99.90
23073;DHT22;34865;51.046;3.732;2022-08-01T08:04:14;26.30;99.90
23073;DHT22;34865;51.046;3.732;2022-08-01T08:06:40;27.20;99.90
23073;DHT22;34865;51.046;3.732;2022-08-01T08:09:06;26.80;99.90
23073;DHT22;34865;51.046;3.732;2022-08-01T08:11:32;26.10;99.90
23073;DHT22;34865;51.046;3.732;2022-08-01T08:13:58;25.50;99.90
23073;DHT22;34865;51.046;3.732;2022-08-01T08:16:24;25.00;99.90
23073;DHT22;34865;51.046;3.732;2022-08-01T08:18:49;24.80;99.90
23073;DHT22;34865;51.046;3.732;2022-08-01T08:21:19;24.40;99.90
23073;DHT22;34865;51.046;3.732;2022-08-01T08:23:46;24.10;99.90
23073;DHT22;34865;51.046;3.732;2022-08-01T08:26:30;24.10;99.90
23073;DHT22;34865;51.046;3.732;2022-08-01T08:28:56;24.00;99.90
23073;DHT22;34865;51.046;3.732;2022-08-01T08:31:21;23.80;99.90
23073;DHT22;34865;51.046;3.732;2022-08-01T08:33:47;23.80;99.90
23073;DHT22;34865;51.046;3.732;2022-08-01T08:36:14;23.60;99.90
23073;DHT22;34865;51.046;3.732;2022-08-01T08:38:40;23.70;99.90
23073;DHT22;34865;51.046;3.732;2022-08-01T08:41:05;23.90;99.90
23073;DHT22;34865;51.046;3.732;2022-08-01T08:43:31;24.90;99.90
23073;DHT22;34865;51.046;3.732;2022-08-01T08:45:57;25.30;99.90
23073;DHT22;34865;51.046;3.732;2022-08-01T08:48:23;26.40;99.90
23073;DHT22;34865;51.046;3.732;2022-08-01T08:50:50;28.80;99.90
23073;DHT22;34865;51.046;3.732;2022-08-01T08:53:16;29.10;99.90
23073;DHT22;34865;51.046;3.732;2022-08-01T08:55:43;30.10;99.90
23073;DHT22;34865;51.046;3.732;2022-08-01T08:58:13;29.60;99.90
23073;DHT22;34865;51.046;3.732;2022-08-01T09:00:40;28.50;99.90
23073;DHT22;34865;51.046;3.732;2022-08-01T09:03:06;27.60;99.90
23073;DHT22;34865;51.046;3.732;2022-08-01T09:05:32;26.20;99.90
23073;DHT22;34865;51.046;3.732;2022-08-01T09:07:57;26.40;99.90
23073;DHT22;34865;51.046;3.732;2022-08-01T09:10:23;26.50;99.90
23073;DHT22;34865;51.046;3.732;2022-08-01T09:13:14;26.40;99.90
23073;DHT22;34865;51.046;3.732;2022-08-01T09:15:41;25.90;99.90
23073;DHT22;34865;51.046;3.732;2022-08-01T09:18:07;25.60;99.90
23073;DHT22;34865;51.046;3.732;2022-08-01T09:20:33;26.70;99.90
23073;DHT22;34865;51.046;3.732;2022-08-01T09:23:02;28.10;99.90
23073;DHT22;34865;51.046;3.732;2022-08-01T09:25:29;28.30;99.90
23073;DHT22;34865;51.046;3.732;2022-08-01T09:28:04;28.00;99.90
23073;DHT22;34865;51.046;3.732;2022-08-01T09:30:37;28.90;99.90
23073;DHT22;34865;51.046;3.732;2022-08-01T09:33:04;30.40;99.90
23073;DHT22;34865;51.046;3.732;2022-08-01T09:35:34;31.60;99.90
23073;DHT22;34865;51.046;3.732;2022-08-01T09:38:12;32.00;99.90
23073;DHT22;34865;51.046;3.732;2022-08-01T09:40:59;31.30;99.90
23073;DHT22;34865;51.046;3.732;2022-08-01T09:43:29;30.70;99.90
23073;DHT22;34865;51.046;3.732;2022-08-01T09:45:58;29.20;99.90
23073;DHT22;34865;51.046;3.732;2022-08-01T09:48:25;28.10;99.90
23073;DHT22;34865;51.046;3.732;2022-08-01T09:50:55;26.90;99.90
23073;DHT22;34865;51.046;3.732;2022-08-01T09:53:21;26.80;99.90
23073;DHT22;34865;51.046;3.732;2022-08-01T09:55:49;26.70;99.90
23073;DHT22;34865;51.046;3.732;2022-08-01T09:58:17;26.40;99.90
23073;DHT22;34865;51.046;3.732;2022-08-01T10:01:00;26.40;99.90
23073;DHT22;34865;51.046;3.732;2022-08-01T10:03:27;26.80;99.90
23073;DHT22;34865;51.046;3.732;2022-08-01T10:05:54;27.00;99.90
23073;DHT22;34865;51.046;3.732;2022-08-01T10:08:20;27.20;99.90
23073;DHT22;34865;51.046;3.732;2022-08-01T10:11:08;27.10;99.90
23073;DHT22;34865;51.046;3.732;2022-08-01T10:13:34;27.40;99.90
23073;DHT22;34865;51.046;3.732;2022-08-01T10:16:07;27.60;99.90
23073;DHT22;34865;51.046;3.732;2022-08-01T10:18:35;28.10;99.90
23073;DHT22;34865;51.046;3.732;2022-08-01T10:21:03;28.00;99.90
23073;DHT22;34865;51.046;3.732;2022-08-01T10:23:36;28.20;99.90
23073;DHT22;34865;51.046;3.732;2022-08-01T10:26:02;29.00;99.90
23073;DHT22;34865;51.046;3.732;2022-08-01T10:28:30;29.00;99.90
23073;DHT22;34865;51.046;3.732;2022-08-01T10:30:58;29.30;99.90
23073;DHT22;34865;51.046;3.732;2022-08-01T10:33:24;29.50;99.90
23073;DHT22;34865;51.046;3.732;2022-08-01T10:35:51;29.70;99.90
23073;DHT22;34865;51.046;3.732;2022-08-01T10:38:17;29.60;99.90
23073;DHT22;34865;51.046;3.732;2022-08-01T10:40:43;29.30;99.90
23073;DHT22;34865;51.046;3.732;2022-08-01T10:43:10;29.50;99.90
23073;DHT22;34865;51.046;3.732;2022-08-01T10:45:36;28.50;99.90
23073;DHT22;34865;51.046;3.732;2022-08-01T10:50:44;28.70;99.90
23073;DHT22;34865;51.046;3.732;2022-08-01T10:53:24;29.20;99.90
23073;DHT22;34865;51.046;3.732;2022-08-01T10:55:59;29.40;99.90
23073;DHT22;34865;51.046;3.732;2022-08-01T10:58:35;29.10;99.90
23073;DHT22;34865;51.046;3.732;2022-08-01T11:03:55;28.30;99.90
23073;DHT22;34865;51.046;3.732;2022-08-01T11:06:25;28.20;99.90
23073;DHT22;34865;51.046;3.732;2022-08-01T11:08:53;27.90;99.90
23073;DHT22;34865;51.046;3.732;2022-08-01T11:11:20;27.90;99.90
23073;DHT22;34865;51.046;3.732;2022-08-01T11:14:02;27.60;99.90
23073;DHT22;34865;51.046;3.732;2022-08-01T11:16:39;27.40;99.90
23073;DHT22;34865;51.046;3.732;2022-08-01T11:19:06;27.20;99.90
23073;DHT22;34865;51.046;3.732;2022-08-01T11:27:24;27.30;99.90
23073;DHT22;34865;51.046;3.732;2022-08-01T11:35:14;27.40;99.90
23073;DHT22;34865;51.046;3.732;2022-08-01T11:37:40;27.50;99.90
23073;DHT22;34865;51.046;3.732;2022-08-01T11:42:40;27.60;99.90
23073;DHT22;34865;51.046;3.732;2022-08-01T11:45:07;27.50;99.90
23073;DHT22;34865;51.046;3.732;2022-08-01T11:47:46;27.60;99.90
23073;DHT22;34865;51.046;3.732;2022-08-01T11:50:32;27.70;99.90
23073;DHT22;34865;51.046;3.732;2022-08-01T11:53:04;27.90;99.90
23073;DHT22;34865;51.046;3.732;2022-08-01T11:55:31;27.90;99.90
23073;DHT22;34865;51.046;3.732;2022-08-01T11:58:20;27.90;99.90
23073;DHT22;34865;51.046;3.732;2022-08-01T12:00:52;27.90;99.90
23073;DHT22;34865;51.046;3.732;2022-08-01T12:03:31;28.00;99.90
23073;DHT22;34865;51.046;3.732;2022-08-01T12:05:58;28.50;99.90
23073;DHT22;34865;51.046;3.732;2022-08-01T12:08:28;28.40;99.90
23073;DHT22;34865;51.046;3.732;2022-08-01T12:10:55;28.40;99.90
23073;DHT22;34865;51.046;3.732;2022-08-01T12:13:21;28.80;99.90
23073;DHT22;34865;51.046;3.732;2022-08-01T12:15:47;28.80;99.90
23073;DHT22;34865;51.046;3.732;2022-08-01T12:18:15;28.60;99.90
23073;DHT22;34865;51.046;3.732;2022-08-01T12:20:43;28.50;99.90
23073;DHT22;34865;51.046;3.732;2022-08-01T12:23:12;28.70;99.90
23073;DHT22;34865;51.046;3.732;2022-08-01T12:25:38;28.60;99.90
23073;DHT22;34865;51.046;3.732;2022-08-01T12:28:10;28.80;99.90
23073;DHT22;34865;51.046;3.732;2022-08-01T12:30:38;28.70;99.90
23073;DHT22;34865;51.046;3.732;2022-08-01T12:33:06;28.40;99.90
23073;DHT22;34865;51.046;3.732;2022-08-01T12:35:32;28.20;99.90
23073;DHT22;34865;51.046;3.732;2022-08-01T12:38:21;28.00;99.90
23073;DHT22;34865;51.046;3.732;2022-08-01T12:40:47;28.00;99.90
23073;DHT22;34865;51.046;3.732;2022-08-01T12:43:20;28.00;99.90
23073;DHT22;34865;51.046;3.732;2022-08-01T12:45:49;27.90;99.90
23073;DHT22;34865;51.046;3.732;2022-08-01T12:48:16;27.70;99.90
23073;DHT22;34865;51.046;3.732;2022-08-01T12:50:48;27.80;99.90
23073;DHT22;34865;51.046;3.732;2022-08-01T12:53:14;27.50;99.90
23073;DHT22;34865;51.046;3.732;2022-08-01T12:55:48;27.40;99.90
23073;DHT22;34865;51.046;3.732;2022-08-01T12:58:16;27.30;99.90
23073;DHT22;34865;51.046;3.732;2022-08-01T13:00:44;27.40;99.90
23073;DHT22;34865;51.046;3.732;2022-08-01T13:03:15;27.70;99.90
23073;DHT22;34865;51.046;3.732;2022-08-01T13:08:10;27.90;99.90
23073;DHT22;34865;51.046;3.732;2022-08-01T13:10:36;27.80;99.90
23073;DHT22;34865;51.046;3.732;2022-08-01T13:13:02;27.60;99.90
23073;DHT22;34865;51.046;3.732;2022-08-01T13:15:33;27.40;99.90
23073;DHT22;34865;51.046;3.732;2022-08-01T13:20:46;27.20;99.90
23073;DHT22;34865;51.046;3.732;2022-08-01T13:23:16;27.30;99.90
23073;DHT22;34865;51.046;3.732;2022-08-01T13:25:54;27.30;99.90
23073;DHT22;34865;51.046;3.732;2022-08-01T13:28:25;27.00;99.90
23073;DHT22;34865;51.046;3.732;2022-08-01T13:31:02;26.90;99.90
23073;DHT22;34865;51.046;3.732;2022-08-01T13:36:07;27.10;99.90
23073;DHT22;34865;51.046;3.732;2022-08-01T13:38:32;27.10;99.90
23073;DHT22;34865;51.046;3.732;2022-08-01T13:41:16;27.20;99.90
23073;DHT22;34865;51.046;3.732;2022-08-01T13:43:42;26.50;99.90
23073;DHT22;34865;51.046;3.732;2022-08-01T13:46:08;26.40;99.90
23073;DHT22;34865;51.046;3.732;2022-08-01T13:48:33;26.50;99.90
23073;DHT22;34865;51.046;3.732;2022-08-01T13:50:59;26.70;99.90
23073;DHT22;34865;51.046;3.732;2022-08-01T13:53:25;26.60;99.90
23073;DHT22;34865;51.046;3.732;2022-08-01T13:55:51;26.60;99.90
23073;DHT22;34865;51.046;3.732;2022-08-01T13:58:17;26.50;99.90
23073;DHT22;34865;51.046;3.732;2022-08-01T14:00:42;26.50;99.90
23073;DHT22;34865;51.046;3.732;2022-08-01T14:03:08;26.50;99.90
23073;DHT22;34865;51.046;3.732;2022-08-01T14:05:35;26.30;99.90
23073;DHT22;34865;51.046;3.732;2022-08-01T14:08:01;26.30;99.90
23073;DHT22;34865;51.046;3.732;2022-08-01T14:10:27;26.50;99.90
23073;DHT22;34865;51.046;3.732;2022-08-01T14:12:55;26.70;99.90
23073;DHT22;34865;51.046;3.732;2022-08-01T14:15:21;26.80;99.90
23073;DHT22;34865;51.046;3.732;2022-08-01T14:17:47;26.70;99.90
23073;DHT22;34865;51.046;3.732;2022-08-01T14:20:13;26.70;99.90
23073;DHT22;34865;51.046;3.732;2022-08-01T14:22:38;26.90;99.90
23073;DHT22;34865;51.046;3.732;2022-08-01T14:25:06;26.90;99.90
23073;DHT22;34865;51.046;3.732;2022-08-01T14:27:32;27.10;99.90
23073;DHT22;34865;51.046;3.732;2022-08-01T14:30:02;27.30;99.90
23073;DHT22;34865;51.046;3.732;2022-08-01T14:32:28;27.10;99.90
23073;DHT22;34865;51.046;3.732;2022-08-01T14:34:54;26.90;99.90
23073;DHT22;34865;51.046;3.732;2022-08-01T14:37:21;26.80;99.90
23073;DHT22;34865;51.046;3.732;2022-08-01T14:39:46;26.50;99.90
23073;DHT22;34865;51.046;3.732;2022-08-01T14:42:12;26.40;99.90
23073;DHT22;34865;51.046;3.732;2022-08-01T14:44:37;26.60;99.90
23073;DHT22;34865;51.046;3.732;2022-08-01T14:47:03;26.80;99.90
23073;DHT22;34865;51.046;3.732;2022-08-01T14:49:29;26.80;99.90
23073;DHT22;34865;51.046;3.732;2022-08-01T14:51:55;26.80;99.90
23073;DHT22;34865;51.046;3.732;2022-08-01T14:54:20;26.50;99.90
23073;DHT22;34865;51.046;3.732;2022-08-01T14:56:46;26.50;99.90
23073;DHT22;34865;51.046;3.732;2022-08-01T14:59:11;26.70;99.90
23073;DHT22;34865;51.046;3.732;2022-08-01T15:01:37;26.70;99.90
23073;DHT22;34865;51.046;3.732;2022-08-01T15:04:03;26.70;99.90
23073;DHT22;34865;51.046;3.732;2022-08-01T15:06:28;26.60;99.90
23073;DHT22;34865;51.046;3.732;2022-08-01T15:08:54;26.60;99.90
23073;DHT22;34865;51.046;3.732;2022-08-01T15:11:20;26.70;99.90
23073;DHT22;34865;51.046;3.732;2022-08-01T15:13:46;26.70;99.90
23073;DHT22;34865;51.046;3.732;2022-08-01T15:16:31;26.70;99.90
23073;DHT22;34865;51.046;3.732;2022-08-01T15:18:57;26.80;99.90
23073;DHT22;34865;51.046;3.732;2022-08-01T15:21:23;26.90;99.90
23073;DHT22;34865;51.046;3.732;2022-08-01T15:23:48;26.90;99.90
23073;DHT22;34865;51.046;3.732;2022-08-01T15:26:15;26.70;99.90
23073;DHT22;34865;51.046;3.732;2022-08-01T15:28:40;26.60;99.90
23073;DHT22;34865;51.046;3.732;2022-08-01T15:31:06;26.40;99.90
23073;DHT22;34865;51.046;3.732;2022-08-01T15:33:31;26.50;99.90
23073;DHT22;34865;51.046;3.732;2022-08-01T15:35:57;26.20;99.90
23073;DHT22;34865;51.046;3.732;2022-08-01T15:38:22;26.00;99.90
23073;DHT22;34865;51.046;3.732;2022-08-01T15:40:48;26.00;99.90
23073;DHT22;34865;51.046;3.732;2022-08-01T15:43:14;25.90;99.90
23073;DHT22;34865;51.046;3.732;2022-08-01T15:45:39;25.90;99.90
23073;DHT22;34865;51.046;3.732;2022-08-01T15:48:05;25.90;99.90
23073;DHT22;34865;51.046;3.732;2022-08-01T15:50:31;26.00;99.90
23073;DHT22;34865;51.046;3.732;2022-08-01T15:52:56;26.00;99.90
23073;DHT22;34865;51.046;3.732;2022-08-01T15:55:22;26.10;99.90
23073;DHT22;34865;51.046;3.732;2022-08-01T15:57:48;26.20;99.90
23073;DHT22;34865;51.046;3.732;2022-08-01T16:00:14;26.20;99.90
23073;DHT22;34865;51.046;3.732;2022-08-01T16:02:40;26.30;99.90
23073;DHT22;34865;51.046;3.732;2022-08-01T16:05:06;26.20;99.90
23073;DHT22;34865;51.046;3.732;2022-08-01T16:07:32;26.10;99.90
23073;DHT22;34865;51.046;3.732;2022-08-01T16:09:58;26.20;99.90
23073;DHT22;34865;51.046;3.732;2022-08-01T16:12:24;26.20;99.90
23073;DHT22;34865;51.046;3.732;2022-08-01T16:14:49;26.10;99.90